Time;durP1;ratioP1;P1;durP2;ratioP2;P2;SDS_P1;SDS_P2;PMS_P1;PMS_P2;Temp;Humidity;BMP_temperature;BMP_pressure;BME280_temperature;BME280_humidity;BME280_pressure;Samples;Min_cycle;Max_cycle;Signal;HPM_P1;HPM_P2
2024/01/20 00:03:01;;;;;;;9.48;7.47;;;;;;;0.97;100.00;101869.97;10198417;28;20100;-72
2024/01/20 00:07:57;;;;;;;14.77;7.75;;;;;;;0.97;100.00;101862.72;10197263;28;20136;-71
2024/01/20 00:12:54;;;;;;;12.48;7.63;;;;;;;0.96;100.00;101877.25;10198237;28;20510;-72
2024/01/20 00:17:50;;;;;;;14.38;7.40;;;;;;;1.02;100.00;101870.97;10195554;28;20073;-72
2024/01/20 00:22:48;;;;;;;14.43;7.47;;;;;;;0.98;100.00;101869.75;10197998;28;20502;-72
2024/01/20 00:27:45;;;;;;;15.43;7.85;;;;;;;1.04;100.00;101879.66;10196689;28;20124;-71
2024/01/20 00:32:42;;;;;;;9.75;7.22;;;;;;;1.00;100.00;101889.22;10197175;28;20046;-72
2024/01/20 00:37:39;;;;;;;12.88;7.03;;;;;;;0.97;100.00;101886.13;10197793;28;20050;-71
2024/01/20 00:42:36;;;;;;;10.27;6.80;;;;;;;0.90;100.00;101883.50;10196207;28;20050;-71
2024/01/20 00:47:32;;;;;;;9.90;7.35;;;;;;;0.96;100.00;101893.41;10196670;28;20073;-71
2024/01/20 00:52:32;;;;;;;10.35;6.82;;;;;;;0.93;100.00;101910.03;10195590;28;20140;-71
2024/01/20 00:57:29;;;;;;;12.15;7.70;;;;;;;0.90;100.00;101905.06;10195264;28;20054;-72
2024/01/20 01:02:26;;;;;;;11.88;7.68;;;;;;;0.94;100.00;101906.25;10195512;28;20052;-72
2024/01/20 01:07:22;;;;;;;7.72;6.70;;;;;;;1.00;100.00;101910.75;10195399;28;20605;-71
2024/01/20 01:12:19;;;;;;;12.27;7.20;;;;;;;1.11;100.00;101932.59;10195185;28;20045;-71
2024/01/20 01:17:16;;;;;;;13.73;7.90;;;;;;;1.11;100.00;101927.22;10194718;28;20714;-72
2024/01/20 01:22:13;;;;;;;8.23;7.30;;;;;;;1.15;100.00;101955.34;10195999;28;20133;-71
2024/01/20 01:27:09;;;;;;;13.43;8.10;;;;;;;1.14;100.00;101940.22;10193905;28;20054;-72
2024/01/20 01:32:06;;;;;;;13.27;7.72;;;;;;;1.12;100.00;101940.47;10197251;28;20133;-72
2024/01/20 01:37:03;;;;;;;11.32;7.93;;;;;;;1.10;100.00;101958.72;10193381;28;20073;-71
2024/01/20 01:41:59;;;;;;;10.40;7.68;;;;;;;1.09;100.00;101950.84;10195213;28;20096;-71
2024/01/20 01:46:55;;;;;;;16.95;8.85;;;;;;;1.08;100.00;101941.13;10193797;28;20046;-72
2024/01/20 01:51:52;;;;;;;13.25;8.45;;;;;;;1.02;100.00;101962.53;10188233;28;20047;-71
2024/01/20 01:56:51;;;;;;;14.40;8.82;;;;;;;1.03;100.00;101969.56;10192944;28;20116;-71
2024/01/20 02:01:47;;;;;;;12.70;7.82;;;;;;;0.99;100.00;101968.34;10193442;28;20115;-71
2024/01/20 02:06:44;;;;;;;17.25;9.88;;;;;;;0.91;100.00;101960.59;10191021;28;20042;-71
2024/01/20 02:11:41;;;;;;;14.77;10.98;;;;;;;0.86;100.00;101984.66;10175059;28;20057;-71
2024/01/20 02:16:38;;;;;;;16.70;10.23;;;;;;;0.81;100.00;101965.63;10192758;28;20049;-71
2024/01/20 02:21:36;;;;;;;14.52;11.15;;;;;;;0.77;100.00;101988.69;10191875;28;20425;-72
2024/01/20 02:26:32;;;;;;;16.00;10.77;;;;;;;0.82;100.00;102015.75;10190368;28;20054;-72
2024/01/20 02:31:29;;;;;;;18.17;11.20;;;;;;;0.80;100.00;102001.69;10192049;28;20066;-72
2024/01/20 02:36:25;;;;;;;13.73;10.07;;;;;;;0.77;100.00;101996.75;10192168;28;20042;-71
2024/01/20 02:41:22;;;;;;;20.25;11.60;;;;;;;0.71;100.00;101992.25;10191754;28;20072;-72
2024/01/20 02:46:18;;;;;;;21.25;12.70;;;;;;;0.68;100.00;101995.41;10192475;28;20049;-71
2024/01/20 02:51:15;;;;;;;13.68;11.88;;;;;;;0.68;100.00;102006.16;10191724;28;20046;-71
2024/01/20 02:56:12;;;;;;;15.40;11.45;;;;;;;0.63;100.00;102010.31;10191686;28;20052;-71
2024/01/20 03:01:09;;;;;;;25.60;13.07;;;;;;;0.57;100.00;101989.66;10192041;28;20046;-72
2024/01/20 03:06:05;;;;;;;18.83;13.35;;;;;;;0.61;100.00;101985.50;10190860;28;20049;-71
2024/01/20 03:11:02;;;;;;;20.05;13.10;;;;;;;0.68;100.00;101998.09;10192482;28;20042;-70
2024/01/20 03:15:58;;;;;;;22.20;11.73;;;;;;;0.69;100.00;102010.50;10191034;28;20057;-71
2024/01/20 03:20:55;;;;;;;19.83;12.65;;;;;;;0.67;100.00;102017.94;10196940;28;20054;-71
2024/01/20 03:25:51;;;;;;;16.83;12.77;;;;;;;0.67;100.00;102001.81;10199581;28;20137;-71
2024/01/20 03:30:48;;;;;;;18.00;13.32;;;;;;;0.62;100.00;101995.19;10198841;28;20053;-71
2024/01/20 03:35:44;;;;;;;20.65;12.05;;;;;;;0.57;100.00;102003.13;10197934;28;20054;-71
2024/01/20 03:40:43;;;;;;;14.32;12.52;;;;;;;0.60;100.00;102008.09;10199652;28;20100;-72
2024/01/20 03:45:43;;;;;;;20.20;13.90;;;;;;;0.68;100.00;102025.00;10195374;28;20053;-71
2024/01/20 03:50:39;;;;;;;17.08;12.68;;;;;;;0.71;100.00;102013.78;10199306;28;20057;-71
2024/01/20 03:55:36;;;;;;;14.82;11.55;;;;;;;0.69;100.00;102010.50;10198194;28;20077;-70
2024/01/20 04:00:32;;;;;;;24.02;15.52;;;;;;;0.55;100.00;102010.59;10199489;28;20073;-71
2024/01/20 04:05:29;;;;;;;19.08;14.25;;;;;;;0.46;100.00;102032.59;10197944;28;20038;-71
2024/01/20 04:10:26;;;;;;;20.58;15.30;;;;;;;0.43;100.00;102060.78;10199212;28;20125;-71
2024/01/20 04:15:22;;;;;;;17.80;15.70;;;;;;;0.40;100.00;102051.28;10197393;28;20506;-71
2024/01/20 04:20:19;;;;;;;20.98;15.52;;;;;;;0.40;100.00;102055.84;10197879;28;20547;-71
2024/01/20 04:25:15;;;;;;;22.58;16.38;;;;;;;0.42;100.00;102059.16;10197760;28;20054;-71
2024/01/20 04:30:13;;;;;;;29.88;18.55;;;;;;;0.50;100.00;102072.31;10196828;28;20074;-71
2024/01/20 04:35:09;;;;;;;24.08;17.30;;;;;;;0.54;100.00;102072.72;10197225;28;20116;-72
2024/01/20 04:40:06;;;;;;;21.95;17.35;;;;;;;0.51;100.00;102074.00;10197633;28;20050;-73
2024/01/20 04:45:04;;;;;;;24.75;17.42;;;;;;;0.51;100.00;102067.75;10196649;28;20058;-71
2024/01/20 04:50:01;;;;;;;21.77;18.27;;;;;;;0.59;100.00;102071.03;10197980;28;20058;-70
2024/01/20 04:54:57;;;;;;;25.88;17.70;;;;;;;0.59;100.00;102076.41;10196515;28;20065;-70
2024/01/20 04:59:54;;;;;;;23.38;18.08;;;;;;;0.58;100.00;102074.75;10196508;28;20121;-70
2024/01/20 05:04:50;;;;;;;19.90;17.02;;;;;;;0.61;100.00;102085.09;10195933;28;20104;-71
2024/01/20 05:09:47;;;;;;;26.30;19.27;;;;;;;0.62;100.00;102091.28;10187883;28;20050;-71
2024/01/20 05:14:43;;;;;;;22.88;18.88;;;;;;;0.59;100.00;102086.34;10195599;28;20421;-71
2024/01/20 05:19:40;;;;;;;26.05;19.52;;;;;;;0.53;100.00;102098.78;10195540;28;20849;-71
2024/01/20 05:24:36;;;;;;;25.65;19.45;;;;;;;0.42;100.00;102096.81;10194972;28;20056;-71
2024/01/20 05:29:33;;;;;;;19.13;17.17;;;;;;;0.44;100.00;102100.09;10196020;28;20045;-71
2024/01/20 05:34:29;;;;;;;22.50;18.60;;;;;;;0.45;100.00;102107.13;10194480;28;20041;-71
2024/01/20 05:39:26;;;;;;;21.70;18.20;;;;;;;0.37;100.00;102104.69;10195515;28;20128;-71
2024/01/20 05:44:23;;;;;;;24.67;18.15;;;;;;;0.32;100.00;102108.03;10193398;28;20526;-71
2024/01/20 05:49:19;;;;;;;24.20;18.38;;;;;;;0.27;100.00;102109.72;10196216;28;20393;-70
2024/01/20 05:54:16;;;;;;;22.48;17.80;;;;;;;0.14;100.00;102116.81;10193695;28;20054;-71
2024/01/20 05:59:12;;;;;;;28.45;19.42;;;;;;;0.16;100.00;102125.50;10193206;28;20089;-71
2024/01/20 06:04:09;;;;;;;26.02;19.85;;;;;;;0.18;100.00;102120.72;10192460;28;20069;-71
2024/01/20 06:09:05;;;;;;;33.78;20.50;;;;;;;0.15;100.00;102139.97;10194067;28;20567;-71
2024/01/20 06:14:02;;;;;;;24.33;19.35;;;;;;;0.24;100.00;102132.50;10192439;28;20440;-71
2024/01/20 06:18:58;;;;;;;27.95;18.40;;;;;;;0.23;100.00;102135.41;10193898;28;20186;-70
2024/01/20 06:23:55;;;;;;;24.35;19.90;;;;;;;0.15;100.00;102144.53;10192316;28;20050;-70
2024/01/20 06:28:51;;;;;;;24.95;19.23;;;;;;;0.05;100.00;102142.31;10193539;28;20501;-71
2024/01/20 06:33:48;;;;;;;24.20;19.83;;;;;;;0.05;100.00;102150.38;10192117;28;20123;-71
2024/01/20 06:38:45;;;;;;;22.58;19.88;;;;;;;0.01;100.00;102154.53;10176197;28;20088;-71
2024/01/20 06:43:41;;;;;;;24.17;18.65;;;;;;;-0.04;100.00;102151.66;10193792;28;20077;-71
2024/01/20 06:48:38;;;;;;;29.10;21.58;;;;;;;-0.04;100.00;102151.66;10187301;28;20097;-71
2024/01/20 06:53:35;;;;;;;21.83;19.15;;;;;;;-0.08;100.00;102147.72;10192355;28;20050;-71
2024/01/20 06:58:31;;;;;;;23.23;19.38;;;;;;;-0.12;100.00;102154.56;10191924;28;20046;-71
2024/01/20 07:03:28;;;;;;;32.10;20.67;;;;;;;-0.13;100.00;102150.22;10192076;28;20498;-71
2024/01/20 07:08:24;;;;;;;29.73;20.67;;;;;;;-0.18;100.00;102150.03;10191727;28;20038;-70
2024/01/20 07:13:21;;;;;;;24.92;20.90;;;;;;;-0.20;100.00;102152.09;10192338;28;20116;-71
2024/01/20 07:18:17;;;;;;;27.17;19.88;;;;;;;-0.26;100.00;102143.81;10189791;28;20111;-70
2024/01/20 07:23:14;;;;;;;28.23;18.40;;;;;;;-0.24;100.00;102152.50;10191515;28;20532;-70
2024/01/20 07:28:10;;;;;;;27.02;19.58;;;;;;;-0.28;100.00;102167.44;10191969;28;20413;-71
2024/01/20 07:33:07;;;;;;;25.80;19.80;;;;;;;-0.25;100.00;102172.38;10190788;28;20058;-70
2024/01/20 07:38:04;;;;;;;26.90;19.23;;;;;;;-0.22;100.00;102180.00;10192269;28;20042;-71
2024/01/20 07:43:00;;;;;;;24.30;18.85;;;;;;;-0.24;100.00;102184.75;10192087;28;20064;-71
2024/01/20 07:47:58;;;;;;;31.05;18.60;;;;;;;-0.28;100.00;102193.47;10190459;28;20093;-71
2024/01/20 07:52:54;;;;;;;28.70;18.60;;;;;;;-0.17;100.00;102210.81;10192006;28;20387;-70
2024/01/20 07:57:51;;;;;;;28.63;19.27;;;;;;;-0.24;100.00;102208.97;10189907;28;20049;-71
2024/01/20 08:02:47;;;;;;;25.67;17.48;;;;;;;-0.20;100.00;102219.31;10191737;28;20458;-71
2024/01/20 08:07:44;;;;;;;34.08;17.75;;;;;;;-0.22;100.00;102228.41;10195368;28;20505;-71
2024/01/20 08:12:41;;;;;;;25.63;17.02;;;;;;;-0.20;100.00;102232.75;10198250;28;20755;-70
2024/01/20 08:17:37;;;;;;;35.78;19.52;;;;;;;-0.25;100.00;102236.88;10198253;28;20042;-71
2024/01/20 08:22:37;;;;;;;31.70;19.58;;;;;;;-0.19;100.00;102245.16;10198227;28;20129;-71
2024/01/20 08:27:33;;;;;;;29.58;19.23;;;;;;;-0.17;100.00;102253.84;10197642;28;20096;-70
2024/01/20 08:32:30;;;;;;;28.58;17.05;;;;;;;-0.13;100.00;102261.28;10197259;28;20456;-71
2024/01/20 08:37:27;;;;;;;28.70;18.52;;;;;;;-0.02;100.00;102265.19;10197079;28;20042;-70
2024/01/20 08:42:23;;;;;;;25.92;17.60;;;;;;;0.09;100.00;102256.47;10197459;28;20556;-70
2024/01/20 08:47:20;;;;;;;31.33;18.92;;;;;;;0.06;100.00;102278.41;10197453;28;20136;-70
2024/01/20 08:52:16;;;;;;;32.63;19.05;;;;;;;0.05;100.00;102290.22;10196253;28;20108;-70
2024/01/20 08:57:13;;;;;;;36.85;18.73;;;;;;;0.07;100.00;102298.91;10196606;28;20070;-72
2024/01/20 09:02:09;;;;;;;32.42;18.63;;;;;;;0.22;100.00;102312.13;10195850;28;20046;-71
2024/01/20 09:07:06;;;;;;;43.13;18.73;;;;;;;0.41;100.00;102329.25;10194986;28;20065;-71
2024/01/20 09:12:03;;;;;;;27.63;17.25;;;;;;;0.66;100.00;102317.81;10189007;28;20054;-71
2024/01/20 09:17:00;;;;;;;27.42;17.67;;;;;;;0.75;100.00;102325.44;10195157;28;20128;-71
2024/01/20 09:21:56;;;;;;;35.85;19.35;;;;;;;0.72;100.00;102333.97;10195866;28;20046;-71
2024/01/20 09:26:52;;;;;;;29.27;16.15;;;;;;;0.83;100.00;102329.75;10194779;28;20520;-71
2024/01/20 09:31:49;;;;;;;30.10;16.30;;;;;;;0.77;100.00;102336.00;10194528;28;20046;-71
2024/01/20 09:36:45;;;;;;;31.52;16.45;;;;;;;0.84;100.00;102342.19;10194970;28;20076;-72
2024/01/20 09:41:43;;;;;;;32.95;17.52;;;;;;;0.97;100.00;102363.66;10194477;28;20073;-71
2024/01/20 09:46:39;;;;;;;26.52;14.38;;;;;;;1.01;100.00;102354.13;10194308;28;20050;-70
2024/01/20 09:51:49;;;;;;;36.60;15.90;;;;;;;1.08;100.00;102348.72;10193929;28;20053;-71
2024/01/20 09:56:45;;;;;;;29.95;16.05;;;;;;;1.19;100.00;102344.53;10192799;28;20038;-71
2024/01/20 10:01:43;;;;;;;25.88;15.60;;;;;;;1.37;100.00;102366.19;10194734;28;20058;-69
2024/01/20 10:06:40;;;;;;;31.27;16.80;;;;;;;1.57;100.00;102346.38;10192668;28;20521;-69
2024/01/20 10:11:37;;;;;;;24.83;14.05;;;;;;;1.81;100.00;102353.69;10194204;28;20534;-70
2024/01/20 10:16:39;;;;;;;25.77;14.93;;;;;;;1.93;100.00;102350.25;10192229;28;20064;-69
2024/01/20 10:21:40;;;;;;;28.23;16.60;;;;;;;1.86;100.00;102351.16;10192742;28;20050;-70
2024/01/20 10:26:43;;;;;;;28.10;15.75;;;;;;;1.99;100.00;102365.56;10192807;28;20137;-70
2024/01/20 10:31:40;;;;;;;26.08;15.57;;;;;;;2.66;100.00;102358.50;10192724;28;20057;-70
2024/01/20 10:36:40;;;;;;;27.02;14.88;;;;;;;2.60;100.00;102351.31;10191850;28;20556;-69
2024/01/20 10:41:39;;;;;;;29.30;14.68;;;;;;;2.48;100.00;102369.28;10193585;28;20049;-69
2024/01/20 10:46:39;;;;;;;27.08;14.70;;;;;;;2.49;100.00;102355.56;10192133;28;20053;-70
2024/01/20 10:51:36;;;;;;;24.98;14.80;;;;;;;2.52;100.00;102359.69;10193264;28;20052;-71
2024/01/20 10:56:35;;;;;;;23.15;13.23;;;;;;;2.20;100.00;102373.28;10191429;28;20061;-72
2024/01/20 11:01:32;;;;;;;27.02;13.23;;;;;;;2.04;100.00;102369.28;10195426;28;20132;-71
2024/01/20 11:06:29;;;;;;;19.30;12.20;;;;;;;2.01;100.00;102368.88;10191905;28;20038;-72
2024/01/20 11:11:28;;;;;;;20.35;13.40;;;;;;;1.93;100.00;102378.06;10191677;28;20057;-71
2024/01/20 11:16:24;;;;;;;23.05;13.82;;;;;;;2.06;100.00;102369.03;10192105;28;20621;-71
2024/01/20 11:21:21;;;;;;;20.63;12.73;;;;;;;2.18;100.00;102370.00;10192077;28;20046;-71
2024/01/20 11:26:18;;;;;;;26.25;14.25;;;;;;;2.44;100.00;102373.50;10191872;28;20460;-72
2024/01/20 11:31:20;;;;;;;24.35;13.50;;;;;;;2.57;100.00;102378.75;10191506;28;20054;-71
2024/01/20 11:36:17;;;;;;;26.73;14.00;;;;;;;2.81;100.00;102362.69;10191725;28;20053;-71
2024/01/20 11:41:16;;;;;;;27.73;14.85;;;;;;;2.67;100.00;102348.50;10195757;28;20073;-71
2024/01/20 11:46:14;;;;;;;23.58;13.00;;;;;;;2.67;100.00;102368.25;10199019;28;20060;-70
2024/01/20 11:51:10;;;;;;;26.40;12.85;;;;;;;2.91;100.00;102371.94;10198674;28;20096;-71
2024/01/20 11:56:07;;;;;;;20.50;12.70;;;;;;;2.94;100.00;102367.94;10197841;28;20064;-71
2024/01/20 12:01:03;;;;;;;20.13;12.25;;;;;;;2.97;100.00;102372.91;10199171;28;20046;-70
2024/01/20 12:06:07;;;;;;;24.20;13.30;;;;;;;3.01;100.00;102382.19;10195781;28;20038;-70
2024/01/20 12:11:22;;;;;;;18.13;12.15;;;;;;;2.73;100.00;102382.72;10192155;28;20042;-71
2024/01/20 12:16:19;;;;;;;24.60;15.23;;;;;;;2.72;100.00;102387.31;10197338;28;20045;-70
2024/01/20 12:21:15;;;;;;;20.42;12.73;;;;;;;2.68;100.00;102375.31;10197904;28;20069;-71
2024/01/20 12:26:13;;;;;;;24.05;14.35;;;;;;;2.60;100.00;102402.63;10197959;28;20054;-71
2024/01/20 12:31:10;;;;;;;27.42;13.93;;;;;;;2.45;100.00;102380.53;10197078;28;20077;-71
2024/01/20 12:36:10;;;;;;;17.58;12.25;;;;;;;2.52;100.00;102375.88;10196142;28;20421;-71
2024/01/20 12:41:07;;;;;;;25.70;14.02;;;;;;;2.71;100.00;102379.44;10197191;28;20045;-70
2024/01/20 12:46:03;;;;;;;20.55;13.40;;;;;;;3.01;100.00;102401.13;10196514;28;20042;-70
2024/01/20 12:51:00;;;;;;;24.20;14.13;;;;;;;3.01;100.00;102379.50;10188745;28;20052;-70
2024/01/20 12:55:56;;;;;;;19.90;12.70;;;;;;;3.44;100.00;102399.34;10195407;28;20413;-70
2024/01/20 13:00:53;;;;;;;24.30;12.40;;;;;;;4.52;100.00;102375.78;10195878;28;20045;-70
2024/01/20 13:05:51;;;;;;;24.67;13.10;;;;;;;4.42;100.00;102368.25;10194646;28;20104;-71
2024/01/20 13:10:50;;;;;;;20.58;12.45;;;;;;;3.85;100.00;102357.94;10196017;28;20425;-70
2024/01/20 13:15:46;;;;;;;19.85;13.05;;;;;;;3.96;100.00;102359.03;10194913;28;20054;-70
2024/01/20 13:20:43;;;;;;;19.58;12.25;;;;;;;3.97;100.00;102369.63;10195504;28;20080;-70
2024/01/20 13:25:40;;;;;;;18.25;12.18;;;;;;;3.57;100.00;102383.78;10194556;28;20124;-71
2024/01/20 13:30:36;;;;;;;22.08;13.13;;;;;;;3.41;100.00;102400.63;10177460;28;20049;-70
2024/01/20 13:35:33;;;;;;;21.58;12.80;;;;;;;3.31;100.00;102411.97;10193996;28;20057;-70
2024/01/20 13:40:29;;;;;;;21.75;13.93;;;;;;;3.43;100.00;102420.16;10195293;28;20057;-70
2024/01/20 13:45:26;;;;;;;20.40;13.88;;;;;;;3.28;100.00;102406.22;10194591;28;20053;-70
2024/01/20 13:50:24;;;;;;;25.48;13.45;;;;;;;3.22;100.00;102412.53;10193655;28;20076;-71
2024/01/20 13:55:20;;;;;;;26.10;13.23;;;;;;;3.12;100.00;102427.41;10194311;28;20462;-70
2024/01/20 14:00:25;;;;;;;25.98;16.25;;;;;;;3.00;100.00;102431.09;10194069;28;20042;-70
2024/01/20 14:05:22;;;;;;;22.30;15.95;;;;;;;3.07;100.00;102437.25;10193416;28;20049;-71
2024/01/20 14:10:18;;;;;;;24.88;15.65;;;;;;;2.91;100.00;102449.47;10193973;28;20056;-69
2024/01/20 14:15:15;;;;;;;23.05;14.30;;;;;;;2.79;100.00;102453.97;10192445;28;20050;-71
2024/01/20 14:20:12;;;;;;;23.90;16.15;;;;;;;2.82;100.00;102462.44;10192783;28;20490;-69
2024/01/20 14:25:08;;;;;;;27.77;16.17;;;;;;;2.85;100.00;102474.66;10192491;28;20057;-69
2024/01/20 14:30:06;;;;;;;23.25;15.52;;;;;;;2.75;100.00;102472.47;10193281;28;20117;-68
2024/01/20 14:35:03;;;;;;;29.77;16.17;;;;;;;2.70;100.00;102491.22;10192438;28;20096;-68
2024/01/20 14:40:00;;;;;;;23.25;15.07;;;;;;;2.56;100.00;102485.13;10194130;28;20046;-68
2024/01/20 14:44:56;;;;;;;19.77;15.63;;;;;;;2.50;100.00;102492.22;10191841;28;20100;-68
2024/01/20 14:49:54;;;;;;;24.33;16.63;;;;;;;2.39;100.00;102494.78;10193276;28;20092;-69
2024/01/20 14:54:50;;;;;;;25.10;15.55;;;;;;;2.26;100.00;102518.16;10190766;28;20457;-68
2024/01/20 14:59:47;;;;;;;22.95;16.48;;;;;;;2.15;100.00;102518.84;10192903;28;20073;-69
2024/01/20 15:04:45;;;;;;;25.92;16.55;;;;;;;2.01;100.00;102525.34;10190807;28;20046;-68
2024/01/20 15:09:41;;;;;;;23.52;17.13;;;;;;;1.93;100.00;102539.09;10192700;28;20112;-69
2024/01/20 15:14:40;;;;;;;27.88;19.25;;;;;;;1.86;100.00;102542.66;10192672;28;20054;-69
2024/01/20 15:19:38;;;;;;;27.02;17.98;;;;;;;1.77;100.00;102541.25;10199899;28;20668;-69
2024/01/20 15:24:34;;;;;;;26.40;18.63;;;;;;;1.68;100.00;102545.22;10198113;28;20573;-70
2024/01/20 15:29:32;;;;;;;27.33;19.42;;;;;;;1.64;100.00;102552.06;10200317;28;20048;-69
2024/01/20 15:34:28;;;;;;;25.20;19.25;;;;;;;1.69;100.00;102560.34;10198619;28;20041;-69
2024/01/20 15:39:25;;;;;;;24.17;17.85;;;;;;;1.71;100.00;102563.66;10199455;28;20149;-69
2024/01/20 15:44:22;;;;;;;30.92;18.30;;;;;;;1.68;100.00;102566.81;10198063;28;20092;-69
2024/01/20 15:49:18;;;;;;;19.23;16.40;;;;;;;1.58;100.00;102561.00;10196947;28;20042;-68
2024/01/20 15:54:16;;;;;;;29.13;17.98;;;;;;;1.47;100.00;102568.72;10198580;28;20050;-69
2024/01/20 15:59:12;;;;;;;32.83;18.92;;;;;;;1.39;100.00;102571.66;10197842;28;20046;-70
2024/01/20 16:04:09;;;;;;;26.33;17.45;;;;;;;1.30;100.00;102562.16;10197243;28;20514;-70
2024/01/20 16:09:06;;;;;;;23.23;18.20;;;;;;;1.22;100.00;102559.66;10198654;28;20050;-70
2024/01/20 16:14:03;;;;;;;30.92;20.38;;;;;;;1.18;100.00;102553.03;10196907;28;20053;-71
2024/01/20 16:18:59;;;;;;;22.75;18.50;;;;;;;1.13;100.00;102567.13;10198448;28;20056;-71
2024/01/20 16:23:56;;;;;;;26.88;19.45;;;;;;;1.06;100.00;102555.53;10197677;28;20141;-70
2024/01/20 16:28:53;;;;;;;22.25;17.98;;;;;;;1.02;100.00;102560.53;10196383;28;20101;-68
2024/01/20 16:33:50;;;;;;;29.83;19.90;;;;;;;0.97;100.00;102563.00;10197395;28;20042;-71
2024/01/20 16:38:46;;;;;;;28.52;19.92;;;;;;;0.93;100.00;102561.78;10196883;28;20509;-70
2024/01/20 16:43:43;;;;;;;30.40;20.52;;;;;;;0.90;100.00;102564.03;10196148;28;20053;-71
2024/01/20 16:48:40;;;;;;;26.17;17.88;;;;;;;0.83;100.00;102588.28;10197334;28;20108;-70
2024/01/20 16:53:39;;;;;;;24.45;18.88;;;;;;;0.78;100.00;102561.16;10196315;28;20046;-71
2024/01/20 16:58:36;;;;;;;27.35;20.63;;;;;;;0.75;100.00;102570.47;10196779;28;20097;-71
2024/01/20 17:03:32;;;;;;;28.65;19.25;;;;;;;0.68;100.00;102564.25;10195686;28;20054;-71
2024/01/20 17:08:29;;;;;;;28.35;18.95;;;;;;;0.65;100.00;102571.91;10194960;28;20048;-71
2024/01/20 17:13:25;;;;;;;33.45;21.10;;;;;;;0.65;100.00;102579.97;10196338;28;20449;-70
2024/01/20 17:18:22;;;;;;;31.42;19.73;;;;;;;0.55;100.00;102578.50;10194949;28;20037;-70
2024/01/20 17:23:19;;;;;;;27.95;19.05;;;;;;;0.50;100.00;102578.31;10196126;28;20049;-71
2024/01/20 17:28:15;;;;;;;30.23;20.15;;;;;;;0.40;100.00;102591.34;10195214;28;20046;-71
2024/01/20 17:33:15;;;;;;;29.70;20.17;;;;;;;0.36;100.00;102590.91;10195617;28;20053;-71
2024/01/20 17:38:12;;;;;;;24.30;19.17;;;;;;;0.32;100.00;102580.75;10194031;28;20486;-71
2024/01/20 17:43:08;;;;;;;25.25;18.65;;;;;;;0.28;100.00;102584.88;10195167;28;20037;-71
2024/01/20 17:48:05;;;;;;;30.42;20.10;;;;;;;0.22;100.00;102583.00;10191916;28;20060;-73
2024/01/20 17:53:01;;;;;;;30.33;19.25;;;;;;;0.16;100.00;102576.56;10193114;28;20052;-71
2024/01/20 17:57:59;;;;;;;31.15;19.75;;;;;;;0.17;100.00;102583.63;10193082;28;20406;-70
2024/01/20 18:02:56;;;;;;;27.67;19.05;;;;;;;0.13;100.00;102585.88;10194578;28;20046;-71
2024/01/20 18:07:52;;;;;;;31.73;19.40;;;;;;;0.07;100.00;102597.47;10192675;28;20100;-71
2024/01/20 18:12:49;;;;;;;24.58;18.70;;;;;;;0.06;100.00;102587.72;10194543;28;20050;-71
2024/01/20 18:17:46;;;;;;;32.20;18.65;;;;;;;0.02;100.00;102597.22;10192671;28;20528;-70
2024/01/20 18:22:44;;;;;;;30.45;18.75;;;;;;;0.00;100.00;102593.91;10193155;28;20085;-69
2024/01/20 18:27:41;;;;;;;36.40;18.15;;;;;;;-0.08;100.00;102599.47;10193527;28;20041;-70
2024/01/20 18:32:37;;;;;;;32.70;19.40;;;;;;;-0.11;100.00;102602.56;10193115;28;20049;-70
2024/01/20 18:37:34;;;;;;;28.42;18.55;;;;;;;-0.16;100.00;102595.09;10192672;28;20358;-70
2024/01/20 18:42:31;;;;;;;30.83;18.20;;;;;;;-0.17;100.00;102603.34;10192827;28;20045;-71
2024/01/20 18:47:27;;;;;;;29.73;17.75;;;;;;;-0.19;100.00;102606.22;10191796;28;20502;-70
2024/01/20 18:52:24;;;;;;;32.08;17.75;;;;;;;-0.17;100.00;102619.47;10192268;28;20410;-71
2024/01/20 18:57:20;;;;;;;29.30;16.60;;;;;;;-0.17;100.00;102614.09;10191453;28;20065;-71
2024/01/20 19:02:17;;;;;;;28.02;16.38;;;;;;;-0.19;100.00;102616.16;10192850;28;20075;-71
2024/01/20 19:07:13;;;;;;;23.67;14.63;;;;;;;-0.19;100.00;102610.78;10191459;28;20049;-70
2024/01/20 19:12:10;;;;;;;23.33;15.75;;;;;;;-0.21;100.00;102608.28;10192905;28;20111;-70
2024/01/20 19:17:13;;;;;;;24.48;14.77;;;;;;;-0.20;100.00;102609.13;10192406;28;20152;-70
2024/01/20 19:22:09;;;;;;;29.02;14.80;;;;;;;-0.12;100.00;102611.63;10192561;28;20042;-70
2024/01/20 19:27:09;;;;;;;26.83;14.13;;;;;;;-0.12;100.00;102596.31;10190890;28;20103;-70
2024/01/20 19:32:06;;;;;;;28.30;15.07;;;;;;;-0.09;100.00;102600.50;10191419;28;20096;-70
2024/01/20 19:37:03;;;;;;;21.67;14.05;;;;;;;-0.06;100.00;102583.97;10188497;28;20498;-70
2024/01/20 19:41:59;;;;;;;24.83;13.77;;;;;;;0.01;100.00;102600.13;10191976;28;20053;-70
2024/01/20 19:46:56;;;;;;;26.10;15.05;;;;;;;0.03;100.00;102598.88;10190688;28;20049;-70
2024/01/20 19:51:53;;;;;;;21.75;14.63;;;;;;;0.07;100.00;102589.38;10192412;28;20524;-70
2024/01/20 19:56:49;;;;;;;20.55;13.13;;;;;;;0.13;100.00;102587.75;10190636;28;20056;-70
2024/01/20 20:01:48;;;;;;;15.82;11.45;;;;;;;0.14;100.00;102579.47;10195217;28;20049;-70
2024/01/20 20:06:46;;;;;;;18.95;12.20;;;;;;;0.23;100.00;102566.66;10198105;28;20504;-70
2024/01/20 20:11:42;;;;;;;18.58;11.73;;;;;;;0.31;100.00;102557.59;10195441;28;20042;-70
2024/01/20 20:16:40;;;;;;;20.08;12.07;;;;;;;0.36;100.00;102555.09;10198272;28;20697;-70
2024/01/20 20:21:36;;;;;;;20.58;11.57;;;;;;;0.38;100.00;102558.41;10198159;28;20045;-71
2024/01/20 20:26:33;;;;;;;20.52;11.85;;;;;;;0.33;100.00;102550.97;10196924;28;20046;-70
2024/01/20 20:31:30;;;;;;;19.73;11.60;;;;;;;0.43;100.00;102561.31;10198295;28;20049;-71
2024/01/20 20:36:27;;;;;;;14.93;9.90;;;;;;;0.48;100.00;102552.63;10197024;28;20105;-70
2024/01/20 20:41:24;;;;;;;16.60;10.75;;;;;;;0.45;100.00;102542.28;10181332;28;20058;-70
2024/01/20 20:46:21;;;;;;;12.38;9.80;;;;;;;0.47;100.00;102545.59;10196018;28;20049;-69
2024/01/20 20:51:17;;;;;;;15.02;10.43;;;;;;;0.47;100.00;102541.03;10196616;28;20124;-70
2024/01/20 20:56:14;;;;;;;13.13;9.57;;;;;;;0.54;100.00;102541.88;10196981;28;20088;-70
2024/01/20 21:01:10;;;;;;;16.60;9.30;;;;;;;0.58;100.00;102553.91;10196317;28;20077;-69
2024/01/20 21:06:09;;;;;;;11.55;8.48;;;;;;;0.59;100.00;102555.53;10196232;28;20045;-70
2024/01/20 21:11:08;;;;;;;18.35;9.38;;;;;;;0.56;100.00;102550.59;10194945;28;20046;-70
2024/01/20 21:16:05;;;;;;;11.82;7.82;;;;;;;0.56;100.00;102564.03;10195590;28;20061;-70
2024/01/20 21:21:01;;;;;;;12.57;8.45;;;;;;;0.59;100.00;102542.09;10195555;28;20042;-70
2024/01/20 21:25:58;;;;;;;9.95;7.75;;;;;;;0.59;100.00;102534.00;10195419;28;20050;-70
2024/01/20 21:30:54;;;;;;;11.32;7.82;;;;;;;0.62;100.00;102538.97;10194569;28;20050;-70
2024/01/20 21:35:51;;;;;;;15.07;8.77;;;;;;;0.62;100.00;102519.31;10194908;28;20049;-70
2024/01/20 21:40:48;;;;;;;9.73;7.80;;;;;;;0.67;100.00;102524.06;10192619;28;20410;-70
2024/01/20 21:45:45;;;;;;;14.25;7.85;;;;;;;0.68;100.00;102512.28;10185360;28;20584;-69
2024/01/20 21:50:42;;;;;;;11.68;7.85;;;;;;;0.69;100.00;102517.44;10193807;28;20046;-69
2024/01/20 21:55:39;;;;;;;9.77;6.97;;;;;;;0.69;100.00;102511.22;10194167;28;20497;-69
2024/01/20 22:00:36;;;;;;;10.18;6.72;;;;;;;0.70;100.00;102515.59;10194912;28;20042;-69
2024/01/20 22:05:33;;;;;;;10.95;7.20;;;;;;;0.71;100.00;102509.97;10192555;28;20379;-70
2024/01/20 22:10:32;;;;;;;10.02;6.82;;;;;;;0.79;100.00;102506.25;10194137;28;20072;-70
2024/01/20 22:15:28;;;;;;;8.93;6.57;;;;;;;0.80;100.00;102503.34;10192852;28;20112;-70